Time;durP1;ratioP1;P1;durP2;ratioP2;P2;SDS_P1;SDS_P2;PMS_P1;PMS_P2;Temp;Humidity;BMP_temperature;BMP_pressure;BME280_temperature;BME280_humidity;BME280_pressure;Samples;Min_cycle;Max_cycle;Signal;HPM_P1;HPM_P2
2023/06/30 00:01:57;;;;;;;9.73;6.27;;;23.20;64.50;;;;;;4973554;28;20512;-75
2023/06/30 00:04:23;;;;;;;9.00;7.23;;;23.20;64.40;;;;;;4975108;28;20274;-72
2023/06/30 00:06:49;;;;;;;11.27;7.10;;;23.30;64.20;;;;;;4975241;28;20437;-73
2023/06/30 00:09:21;;;;;;;10.00;7.47;;;23.30;64.20;;;;;;4965722;28;21279;-74
2023/06/30 00:11:52;;;;;;;10.40;7.67;;;23.30;64.20;;;;;;4974851;28;20452;-76
2023/06/30 00:14:19;;;;;;;9.83;7.10;;;23.20;64.40;;;;;;4974163;28;20528;-73
2023/06/30 00:16:45;;;;;;;9.90;7.63;;;23.30;64.40;;;;;;4976504;28;20524;-73
2023/06/30 00:19:10;;;;;;;7.23;6.30;;;23.20;64.50;;;;;;4975736;28;20437;-75
2023/06/30 00:21:41;;;;;;;11.67;7.80;;;23.20;64.70;;;;;;4975853;28;20475;-73
2023/06/30 00:24:13;;;;;;;8.87;7.33;;;23.20;64.70;;;;;;4980150;28;20592;-74
2023/06/30 00:26:40;;;;;;;14.60;7.40;;;23.20;64.80;;;;;;4975245;28;20879;-74
2023/06/30 00:29:07;;;;;;;9.87;7.00;;;23.20;65.00;;;;;;4969269;28;20437;-75
2023/06/30 00:31:32;;;;;;;10.23;6.83;;;23.00;65.10;;;;;;4971421;28;20440;-73
2023/06/30 00:33:58;;;;;;;14.33;7.47;;;23.00;65.40;;;;;;4976738;28;20484;-74
2023/06/30 00:36:24;;;;;;;10.33;6.63;;;22.90;65.70;;;;;;4973964;28;20195;-73
2023/06/30 00:38:51;;;;;;;12.00;7.17;;;22.90;65.70;;;;;;4969921;28;20550;-73
2023/06/30 00:41:18;;;;;;;9.27;6.87;;;22.80;66.10;;;;;;4973019;28;20471;-74
2023/06/30 00:43:43;;;;;;;7.57;6.23;;;22.80;66.40;;;;;;4973586;28;20483;-74
2023/06/30 00:46:12;;;;;;;7.67;6.37;;;22.80;65.80;;;;;;4966452;28;20494;-74
2023/06/30 00:48:39;;;;;;;7.10;6.10;;;22.80;65.60;;;;;;4961237;28;20687;-72
2023/06/30 00:51:05;;;;;;;7.47;6.23;;;22.80;65.40;;;;;;4967035;28;20470;-72
2023/06/30 00:53:31;;;;;;;8.53;5.90;;;22.70;65.40;;;;;;4968903;28;20450;-73
2023/06/30 00:55:57;;;;;;;8.50;6.27;;;22.70;65.60;;;;;;4971006;28;21004;-73
2023/06/30 00:58:23;;;;;;;8.80;5.77;;;22.60;65.60;;;;;;4969514;28;20543;-74
2023/06/30 01:00:54;;;;;;;10.63;5.57;;;22.60;65.60;;;;;;4969295;28;20472;-73
2023/06/30 01:03:30;;;;;;;7.73;6.50;;;22.60;65.60;;;;;;4971987;28;20844;-75
2023/06/30 01:06:04;;;;;;;13.33;5.27;;;22.60;65.60;;;;;;4968307;28;20486;-75
2023/06/30 01:08:39;;;;;;;9.50;5.73;;;22.50;65.70;;;;;;4969058;28;21310;-74
2023/06/30 01:11:06;;;;;;;7.80;6.00;;;22.50;65.80;;;;;;4965511;28;20465;-74
2023/06/30 01:13:32;;;;;;;7.80;5.70;;;22.50;65.80;;;;;;4976886;28;20428;-74
2023/06/30 01:15:58;;;;;;;8.30;5.53;;;22.40;66.10;;;;;;4961946;28;20439;-73
2023/06/30 01:18:26;;;;;;;8.07;6.20;;;22.40;66.30;;;;;;4968890;28;20465;-72
2023/06/30 01:20:52;;;;;;;9.13;5.70;;;22.30;66.70;;;;;;4964509;28;20485;-73
2023/06/30 01:23:33;;;;;;;8.40;5.80;;;22.20;66.60;;;;;;4971546;28;20520;-73
2023/06/30 01:25:59;;;;;;;8.20;5.77;;;22.20;66.60;;;;;;4966776;28;20501;-74
2023/06/30 01:28:29;;;;;;;9.57;6.03;;;22.20;66.40;;;;;;4972598;28;20431;-74
2023/06/30 01:30:56;;;;;;;8.17;6.60;;;22.20;66.40;;;;;;4954413;28;20703;-73
2023/06/30 01:33:22;;;;;;;13.40;6.30;;;22.20;66.60;;;;;;4971091;28;20830;-73
2023/06/30 01:35:47;;;;;;;11.73;5.97;;;22.10;66.30;;;;;;4972070;28;20430;-72
2023/06/30 01:38:13;;;;;;;10.67;6.10;;;22.10;66.60;;;;;;4964695;28;20621;-73
2023/06/30 01:40:39;;;;;;;6.80;5.90;;;22.10;66.60;;;;;;4968408;28;20244;-73
2023/06/30 01:43:05;;;;;;;7.93;6.17;;;22.00;66.70;;;;;;4971293;28;20901;-73
2023/06/30 01:45:32;;;;;;;7.83;6.40;;;21.90;66.70;;;;;;4970951;28;20223;-71
2023/06/30 01:47:58;;;;;;;9.40;5.87;;;21.90;66.90;;;;;;4969422;28;20205;-72
2023/06/30 01:50:29;;;;;;;8.73;6.10;;;21.80;67.00;;;;;;4965481;28;20588;-72
2023/06/30 01:52:56;;;;;;;7.63;5.70;;;21.80;67.30;;;;;;4966200;28;20429;-73
2023/06/30 01:55:21;;;;;;;6.87;5.73;;;21.80;67.30;;;;;;4968136;28;20516;-73
2023/06/30 01:57:47;;;;;;;6.80;5.70;;;21.80;67.30;;;;;;4971475;28;20583;-73
2023/06/30 02:00:13;;;;;;;6.60;5.50;;;21.80;67.50;;;;;;4967732;28;20241;-75
2023/06/30 02:02:39;;;;;;;8.40;6.10;;;21.80;67.50;;;;;;4970298;28;20197;-72
2023/06/30 02:05:06;;;;;;;9.73;6.33;;;21.70;67.60;;;;;;4967599;28;20503;-73
2023/06/30 02:07:31;;;;;;;7.53;6.10;;;21.70;67.70;;;;;;4967443;28;20489;-72
2023/06/30 02:09:57;;;;;;;10.00;5.87;;;21.70;67.70;;;;;;4963841;28;20563;-73
2023/06/30 02:12:22;;;;;;;8.30;5.87;;;21.70;67.70;;;;;;4970593;28;20586;-72
2023/06/30 02:14:48;;;;;;;6.87;6.13;;;21.70;67.70;;;;;;4967407;28;20644;-73
2023/06/30 02:17:14;;;;;;;13.13;7.30;;;21.60;67.70;;;;;;4974513;28;20568;-73
2023/06/30 02:19:39;;;;;;;8.53;6.00;;;21.60;67.90;;;;;;4969064;28;20225;-73
2023/06/30 02:22:05;;;;;;;9.90;6.43;;;21.60;68.00;;;;;;4973131;28;20690;-73
2023/06/30 02:24:31;;;;;;;6.77;5.37;;;21.60;68.00;;;;;;4969998;28;20243;-72
2023/06/30 02:26:56;;;;;;;7.23;6.10;;;21.60;68.00;;;;;;4977260;28;20200;-75
2023/06/30 02:29:22;;;;;;;7.03;6.57;;;21.60;68.00;;;;;;4960435;28;20189;-71
2023/06/30 02:31:47;;;;;;;8.57;6.50;;;21.50;68.30;;;;;;4973930;28;20183;-72
2023/06/30 02:34:13;;;;;;;6.70;5.70;;;21.50;68.30;;;;;;4973815;28;20260;-73
2023/06/30 02:36:38;;;;;;;7.83;6.60;;;21.50;68.30;;;;;;4973503;28;20257;-72
2023/06/30 02:39:04;;;;;;;10.93;6.87;;;21.50;68.30;;;;;;4973944;28;20568;-72
2023/06/30 02:41:30;;;;;;;8.10;6.33;;;21.50;68.50;;;;;;4969067;28;20220;-74
2023/06/30 02:43:55;;;;;;;8.60;6.43;;;21.50;68.50;;;;;;4970074;28;20696;-71
2023/06/30 02:46:21;;;;;;;8.57;6.70;;;21.40;68.50;;;;;;4971209;28;20297;-73
2023/06/30 02:48:46;;;;;;;10.23;6.73;;;21.40;68.60;;;;;;4966864;28;20201;-73
2023/06/30 02:51:12;;;;;;;8.77;6.40;;;21.40;68.80;;;;;;4966683;28;20225;-72
2023/06/30 02:53:38;;;;;;;9.70;6.10;;;21.40;68.80;;;;;;4971686;28;20206;-72
2023/06/30 02:56:04;;;;;;;11.20;8.00;;;21.50;69.10;;;;;;4967026;28;20289;-72
2023/06/30 02:58:30;;;;;;;8.90;7.13;;;21.40;69.10;;;;;;4974587;28;20261;-72
2023/06/30 03:00:56;;;;;;;10.40;7.20;;;21.30;69.20;;;;;;4967830;28;20239;-74
2023/06/30 03:03:22;;;;;;;9.17;7.00;;;21.30;69.20;;;;;;4973413;28;20544;-73
2023/06/30 03:05:47;;;;;;;11.30;6.93;;;21.20;69.40;;;;;;4974703;28;20472;-72
2023/06/30 03:08:13;;;;;;;9.27;7.00;;;21.20;69.40;;;;;;4969881;28;20193;-74
2023/06/30 03:10:39;;;;;;;8.17;6.93;;;21.30;69.20;;;;;;4970588;28;20236;-75
2023/06/30 03:13:04;;;;;;;8.60;7.07;;;21.30;69.20;;;;;;4972335;28;20204;-73
2023/06/30 03:15:30;;;;;;;9.47;7.27;;;21.30;69.40;;;;;;4963673;28;20747;-74
2023/06/30 03:17:56;;;;;;;10.13;7.20;;;21.30;69.40;;;;;;4971612;28;20193;-74
2023/06/30 03:20:22;;;;;;;10.50;6.97;;;21.30;69.40;;;;;;4963239;28;20820;-75
2023/06/30 03:22:47;;;;;;;13.17;7.70;;;21.30;69.40;;;;;;4972694;28;20689;-74
2023/06/30 03:25:13;;;;;;;10.97;7.50;;;21.30;69.40;;;;;;4968883;28;20444;-74
2023/06/30 03:27:40;;;;;;;16.50;7.73;;;21.20;69.50;;;;;;4971826;28;20861;-74
2023/06/30 03:30:06;;;;;;;9.20;7.40;;;21.20;69.50;;;;;;4967979;28;20209;-74
2023/06/30 03:32:32;;;;;;;10.17;7.50;;;21.20;69.50;;;;;;4967455;28;20514;-74
2023/06/30 03:34:59;;;;;;;9.33;7.30;;;21.20;69.50;;;;;;4969991;28;21151;-75
2023/06/30 03:37:25;;;;;;;10.10;7.50;;;21.20;69.50;;;;;;4971949;28;20462;-75
2023/06/30 03:39:51;;;;;;;8.40;7.40;;;21.20;69.50;;;;;;4970423;28;20473;-74
2023/06/30 03:42:16;;;;;;;13.40;7.80;;;21.10;69.70;;;;;;4972929;28;20185;-74
2023/06/30 03:44:42;;;;;;;11.00;7.73;;;20.80;69.90;;;;;;4973422;28;20287;-74
2023/06/30 03:47:07;;;;;;;9.77;7.37;;;20.70;70.20;;;;;;4972389;28;20183;-74
2023/06/30 03:49:33;;;;;;;12.03;7.73;;;20.60;70.20;;;;;;4968457;28;20212;-73
2023/06/30 03:51:59;;;;;;;13.53;8.27;;;20.50;70.40;;;;;;4974818;28;20276;-74
2023/06/30 03:54:24;;;;;;;9.93;8.00;;;20.60;70.20;;;;;;4970252;28;20196;-72
2023/06/30 03:56:50;;;;;;;11.00;8.60;;;20.60;70.20;;;;;;4968702;28;20647;-72
2023/06/30 03:59:16;;;;;;;11.43;7.60;;;20.60;70.20;;;;;;4969021;28;20196;-72
2023/06/30 04:01:42;;;;;;;14.83;8.60;;;20.70;69.90;;;;;;4965793;28;20245;-73
2023/06/30 04:04:08;;;;;;;9.47;7.43;;;20.70;69.90;;;;;;4967691;28;20709;-73
2023/06/30 04:06:33;;;;;;;16.80;8.03;;;20.70;70.10;;;;;;4972171;28;20199;-73
2023/06/30 04:08:59;;;;;;;11.27;8.17;;;20.80;70.10;;;;;;4972565;28;20347;-73
2023/06/30 04:11:25;;;;;;;13.53;8.13;;;20.80;69.80;;;;;;4968739;28;20315;-72
2023/06/30 04:13:51;;;;;;;8.70;7.53;;;20.90;69.80;;;;;;4970609;28;20995;-73
2023/06/30 04:16:17;;;;;;;10.43;8.20;;;20.90;69.50;;;;;;4971296;28;20203;-73
2023/06/30 04:18:43;;;;;;;11.03;7.87;;;21.00;69.40;;;;;;4971449;28;20197;-73
2023/06/30 04:21:09;;;;;;;14.00;8.73;;;21.00;69.50;;;;;;4966767;28;20475;-73
2023/06/30 04:23:35;;;;;;;9.20;7.70;;;20.90;69.70;;;;;;4972130;28;20475;-73
2023/06/30 04:26:01;;;;;;;12.13;8.50;;;20.90;69.80;;;;;;4971235;28;20225;-74
2023/06/30 04:28:27;;;;;;;10.87;8.53;;;20.80;70.10;;;;;;4972497;28;20435;-75
2023/06/30 04:30:52;;;;;;;11.30;8.77;;;20.80;70.20;;;;;;4966202;28;20212;-73
2023/06/30 04:33:18;;;;;;;12.03;8.63;;;20.70;70.20;;;;;;4973731;28;20182;-75
2023/06/30 04:35:44;;;;;;;14.93;8.67;;;20.70;70.20;;;;;;4968296;28;20242;-74
2023/06/30 04:38:10;;;;;;;12.50;8.73;;;20.70;70.40;;;;;;4968035;28;20557;-72
2023/06/30 04:40:35;;;;;;;10.80;8.10;;;20.70;70.20;;;;;;4958879;28;20213;-72
2023/06/30 04:43:02;;;;;;;10.30;8.10;;;20.70;70.40;;;;;;4971232;28;20842;-73
2023/06/30 04:45:27;;;;;;;10.90;8.67;;;20.80;70.20;;;;;;4967349;28;20228;-73
2023/06/30 04:47:53;;;;;;;11.17;8.23;;;20.80;70.20;;;;;;4970049;28;20992;-73
2023/06/30 04:50:19;;;;;;;10.77;8.20;;;20.80;70.20;;;;;;4958576;28;20237;-76
2023/06/30 04:52:44;;;;;;;11.70;8.53;;;20.90;70.10;;;;;;4969515;28;20288;-77
2023/06/30 04:55:10;;;;;;;12.30;8.90;;;20.90;69.80;;;;;;4959951;28;20197;-75
2023/06/30 04:57:36;;;;;;;14.03;9.00;;;21.00;69.70;;;;;;4968252;28;20600;-76
2023/06/30 05:00:02;;;;;;;13.90;9.03;;;21.00;69.70;;;;;;4970417;28;20231;-76
2023/06/30 05:02:27;;;;;;;15.53;9.23;;;21.00;69.80;;;;;;4965357;28;20280;-77
2023/06/30 05:04:53;;;;;;;17.80;9.03;;;21.00;70.10;;;;;;4965205;28;20571;-77
2023/06/30 05:07:19;;;;;;;12.83;9.50;;;21.10;70.10;;;;;;4971207;28;20280;-77
2023/06/30 05:09:46;;;;;;;15.17;10.27;;;21.10;70.20;;;;;;4966274;28;20315;-77
2023/06/30 05:12:12;;;;;;;14.47;9.23;;;21.10;70.40;;;;;;4971022;28;20430;-77
2023/06/30 05:14:38;;;;;;;14.77;9.87;;;21.00;70.80;;;;;;4969277;28;20523;-77
2023/06/30 05:17:04;;;;;;;12.90;8.87;;;21.00;70.70;;;;;;4970648;28;20535;-72
2023/06/30 05:19:29;;;;;;;13.57;8.40;;;21.00;70.70;;;;;;4966972;28;20213;-72
2023/06/30 05:21:55;;;;;;;11.87;8.80;;;21.00;71.00;;;;;;4968507;28;20432;-72
2023/06/30 05:24:21;;;;;;;12.67;8.87;;;21.00;71.00;;;;;;4970357;28;20279;-73
2023/06/30 05:26:46;;;;;;;12.97;9.97;;;21.00;71.40;;;;;;4970673;28;20784;-73
2023/06/30 05:29:12;;;;;;;21.77;10.80;;;20.80;72.70;;;;;;4970099;28;20210;-72
2023/06/30 05:31:37;;;;;;;15.70;11.00;;;20.50;75.70;;;;;;4973489;28;20210;-72
2023/06/30 05:34:03;;;;;;;13.77;10.40;;;20.10;79.00;;;;;;4971481;28;20183;-73
2023/06/30 05:36:30;;;;;;;18.90;11.33;;;19.80;80.90;;;;;;4965199;28;20712;-72
2023/06/30 05:38:56;;;;;;;18.30;11.73;;;19.70;81.80;;;;;;4970432;28;20206;-73
2023/06/30 05:41:22;;;;;;;19.23;11.67;;;19.70;83.00;;;;;;4966384;28;20470;-71
2023/06/30 05:43:47;;;;;;;19.80;12.33;;;19.60;83.70;;;;;;4970075;28;20517;-73
2023/06/30 05:46:13;;;;;;;15.47;11.93;;;19.60;83.80;;;;;;4971250;28;20207;-71
2023/06/30 05:48:38;;;;;;;17.70;12.60;;;19.40;84.70;;;;;;4970687;28;20723;-71
2023/06/30 05:51:04;;;;;;;20.57;12.70;;;19.20;85.70;;;;;;4967832;28;20210;-72
2023/06/30 05:53:30;;;;;;;24.50;13.00;;;19.10;87.00;;;;;;4970253;28;20205;-72
2023/06/30 05:55:55;;;;;;;21.23;14.67;;;19.10;87.80;;;;;;4968126;28;20187;-73
2023/06/30 05:58:23;;;;;;;21.90;13.60;;;19.00;89.00;;;;;;4977809;28;20223;-74
2023/06/30 06:00:49;;;;;;;19.03;12.30;;;18.90;89.60;;;;;;4972616;28;20205;-74
2023/06/30 06:03:15;;;;;;;22.43;13.83;;;19.00;90.20;;;;;;4976001;28;20496;-72
2023/06/30 06:05:40;;;;;;;23.90;14.90;;;18.90;90.50;;;;;;4973888;28;20218;-73
2023/06/30 06:08:06;;;;;;;19.07;14.57;;;18.90;90.40;;;;;;4974341;28;20195;-75
2023/06/30 06:10:31;;;;;;;23.77;14.40;;;18.90;90.50;;;;;;4971767;28;20217;-72
2023/06/30 06:12:57;;;;;;;26.67;16.40;;;19.00;90.60;;;;;;4972592;28;20309;-73
2023/06/30 06:15:23;;;;;;;26.20;15.37;;;18.90;90.50;;;;;;4975258;28;20210;-73
2023/06/30 06:17:48;;;;;;;20.33;14.50;;;19.00;90.50;;;;;;4975550;28;20244;-72
2023/06/30 06:20:14;;;;;;;23.87;14.83;;;19.00;90.60;;;;;;4967680;28;20365;-73
2023/06/30 06:22:39;;;;;;;22.00;14.43;;;19.00;90.60;;;;;;4972766;28;20211;-74
2023/06/30 06:25:06;;;;;;;24.53;15.60;;;19.10;90.90;;;;;;4971414;28;20199;-73
2023/06/30 06:27:37;;;;;;;23.27;14.43;;;19.20;91.00;;;;;;4974259;28;20204;-74
2023/06/30 06:30:04;;;;;;;24.43;13.30;;;19.20;90.80;;;;;;4964326;28;20873;-73
2023/06/30 06:32:30;;;;;;;23.33;14.83;;;19.20;90.60;;;;;;4964782;28;20428;-73
2023/06/30 06:34:55;;;;;;;22.00;14.50;;;19.30;90.40;;;;;;4973485;28;20975;-73
2023/06/30 06:37:21;;;;;;;25.13;15.27;;;19.30;90.40;;;;;;4974830;28;20563;-72
2023/06/30 06:39:46;;;;;;;26.33;15.43;;;19.30;90.40;;;;;;4969250;28;20224;-74
2023/06/30 06:42:12;;;;;;;20.77;14.30;;;19.40;90.80;;;;;;4972321;28;20193;-72
2023/06/30 06:44:38;;;;;;;23.23;16.07;;;19.50;91.00;;;;;;4973249;28;20759;-74
2023/06/30 06:47:41;;;;;;;21.40;14.67;;;19.60;91.00;;;;;;4972300;28;20197;-74
2023/06/30 06:50:07;;;;;;;22.13;13.60;;;19.60;90.80;;;;;;4971189;28;20207;-74
2023/06/30 06:52:32;;;;;;;22.80;15.00;;;19.70;90.80;;;;;;4980879;28;20442;-73
2023/06/30 06:54:58;;;;;;;20.33;14.00;;;19.80;90.50;;;;;;4977317;28;20286;-74
2023/06/30 06:57:24;;;;;;;22.53;15.30;;;19.90;90.50;;;;;;4974770;28;20287;-74
2023/06/30 06:59:49;;;;;;;32.43;17.37;;;20.00;90.20;;;;;;4966757;28;20239;-73
2023/06/30 07:02:15;;;;;;;21.40;15.17;;;19.80;90.00;;;;;;4970084;28;20179;-72
2023/06/30 07:04:40;;;;;;;22.00;14.43;;;19.70;89.30;;;;;;4971583;28;20227;-72
2023/06/30 07:07:06;;;;;;;20.37;15.30;;;19.70;89.50;;;;;;4974055;28;20575;-72
2023/06/30 07:09:31;;;;;;;23.50;14.80;;;19.80;89.50;;;;;;4971446;28;20796;-73
2023/06/30 07:11:57;;;;;;;23.67;15.50;;;20.10;89.70;;;;;;4977955;28;20191;-73
2023/06/30 07:14:23;;;;;;;21.20;14.47;;;20.30;89.50;;;;;;4973182;28;20192;-72
2023/06/30 07:16:50;;;;;;;22.70;14.10;;;20.50;89.00;;;;;;4968562;28;20193;-73
2023/06/30 07:19:16;;;;;;;18.67;14.00;;;20.60;88.40;;;;;;4967001;28;20212;-73
2023/06/30 07:21:42;;;;;;;19.23;14.30;;;20.50;86.60;;;;;;4972874;28;20453;-72
2023/06/30 07:24:07;;;;;;;27.27;14.33;;;20.70;86.90;;;;;;4968253;28;20228;-73
2023/06/30 07:26:33;;;;;;;20.60;14.10;;;20.80;85.70;;;;;;4973849;28;20189;-73
2023/06/30 07:28:59;;;;;;;19.37;13.97;;;20.90;85.50;;;;;;4972376;28;20314;-73
2023/06/30 07:31:24;;;;;;;21.63;14.37;;;20.90;84.30;;;;;;4970778;28;20698;-72
2023/06/30 07:33:50;;;;;;;21.77;14.10;;;20.90;84.10;;;;;;4976835;28;20196;-73
2023/06/30 07:36:16;;;;;;;24.00;15.60;;;20.90;84.60;;;;;;4977154;28;20266;-73
2023/06/30 07:38:41;;;;;;;26.87;16.67;;;20.80;84.70;;;;;;4975212;28;20203;-73
2023/06/30 07:41:07;;;;;;;21.40;14.40;;;20.60;85.90;;;;;;4974292;28;20208;-73
2023/06/30 07:43:33;;;;;;;22.23;15.13;;;20.40;86.60;;;;;;4974260;28;20223;-73
2023/06/30 07:45:58;;;;;;;24.77;15.33;;;20.30;86.90;;;;;;4975592;28;20241;-72
2023/06/30 07:48:24;;;;;;;23.93;15.83;;;20.30;87.30;;;;;;4975589;28;20194;-74
2023/06/30 07:50:50;;;;;;;28.40;15.53;;;20.30;87.60;;;;;;4968426;28;20235;-74
2023/06/30 07:53:15;;;;;;;20.90;14.63;;;20.30;87.30;;;;;;4971282;28;20204;-73
2023/06/30 07:55:41;;;;;;;26.83;14.37;;;20.20;86.60;;;;;;4971304;28;20981;-73
2023/06/30 07:58:06;;;;;;;25.07;15.27;;;20.10;86.60;;;;;;4973268;28;20191;-74
2023/06/30 08:00:32;;;;;;;26.77;14.03;;;20.00;86.90;;;;;;4967624;28;20271;-73
2023/06/30 08:02:58;;;;;;;20.07;12.83;;;20.00;87.00;;;;;;4968001;28;20191;-72
2023/06/30 08:05:24;;;;;;;25.93;13.83;;;20.00;85.90;;;;;;4971492;28;20200;-74
2023/06/30 08:07:49;;;;;;;26.13;14.17;;;20.00;85.50;;;;;;4970071;28;20191;-72
2023/06/30 08:10:15;;;;;;;26.50;13.93;;;19.90;85.20;;;;;;4965081;28;20203;-72
2023/06/30 08:12:40;;;;;;;23.60;12.50;;;19.90;85.20;;;;;;4969119;28;20206;-73
2023/06/30 08:15:06;;;;;;;28.97;14.70;;;19.90;85.50;;;;;;4964030;28;20559;-73
2023/06/30 08:17:32;;;;;;;28.00;14.27;;;19.90;85.20;;;;;;4972595;28;20201;-73
2023/06/30 08:19:57;;;;;;;32.83;14.53;;;19.90;85.50;;;;;;4967285;28;20453;-74
2023/06/30 08:22:23;;;;;;;28.30;14.67;;;19.80;85.70;;;;;;4972476;28;20715;-72
2023/06/30 08:24:49;;;;;;;28.03;14.50;;;19.80;85.70;;;;;;4972137;28;20226;-73
2023/06/30 08:27:16;;;;;;;30.87;15.63;;;19.80;85.90;;;;;;4972154;28;20450;-72
2023/06/30 08:29:42;;;;;;;25.90;13.77;;;19.80;85.70;;;;;;4967713;28;20330;-72
2023/06/30 08:32:08;;;;;;;27.10;12.63;;;19.80;85.70;;;;;;4970779;28;20453;-72
2023/06/30 08:34:34;;;;;;;24.70;13.80;;;19.80;85.70;;;;;;4971735;28;20435;-73
2023/06/30 08:36:59;;;;;;;31.17;14.73;;;19.80;85.70;;;;;;4971454;28;20458;-72
2023/06/30 08:39:29;;;;;;;29.90;15.57;;;19.70;85.90;;;;;;4969527;28;20217;-72
2023/06/30 08:41:55;;;;;;;27.07;14.80;;;19.60;86.50;;;;;;4972202;28;20191;-72
2023/06/30 08:44:25;;;;;;;33.83;16.00;;;19.60;87.10;;;;;;4970767;28;20968;-72
2023/06/30 08:46:55;;;;;;;33.90;14.30;;;19.70;86.90;;;;;;4971693;28;20479;-72
2023/06/30 08:49:24;;;;;;;27.53;13.37;;;19.80;86.80;;;;;;4969797;28;20521;-72
2023/06/30 08:51:56;;;;;;;30.80;14.60;;;19.70;86.50;;;;;;4970723;28;20959;-72
2023/06/30 08:54:22;;;;;;;35.07;15.47;;;19.60;87.10;;;;;;4963148;28;20455;-71
2023/06/30 08:56:48;;;;;;;35.73;16.77;;;19.20;88.10;;;;;;4961543;28;20427;-73
2023/06/30 08:59:14;;;;;;;28.77;15.20;;;19.00;89.50;;;;;;4971130;28;20438;-72
2023/06/30 09:01:41;;;;;;;31.83;17.30;;;18.80;90.30;;;;;;4964669;28;20193;-73
2023/06/30 09:04:08;;;;;;;39.33;18.90;;;18.80;91.20;;;;;;4968365;28;20240;-73
2023/06/30 09:06:37;;;;;;;38.90;18.73;;;18.70;91.60;;;;;;4971719;28;20497;-73
2023/06/30 09:09:07;;;;;;;31.47;17.87;;;18.60;92.00;;;;;;4969697;28;20523;-73
2023/06/30 09:11:34;;;;;;;30.30;16.67;;;18.50;92.60;;;;;;4970604;28;20954;-72
2023/06/30 09:14:01;;;;;;;36.83;17.70;;;18.50;92.80;;;;;;4966587;28;20452;-73
2023/06/30 09:16:31;;;;;;;28.03;15.80;;;18.50;93.00;;;;;;4971498;28;20431;-72
2023/06/30 09:18:57;;;;;;;32.30;17.10;;;18.60;93.20;;;;;;4965020;28;20436;-73
2023/06/30 09:21:23;;;;;;;30.77;15.60;;;18.60;93.00;;;;;;4966859;28;20482;-73
2023/06/30 09:23:50;;;;;;;28.30;15.80;;;18.70;93.00;;;;;;4972019;28;20482;-73
2023/06/30 09:26:17;;;;;;;29.40;16.00;;;18.70;92.80;;;;;;4973413;28;20661;-73
2023/06/30 09:28:43;;;;;;;34.97;16.50;;;18.70;92.60;;;;;;4976168;28;20537;-73
2023/06/30 09:31:09;;;;;;;32.00;15.33;;;18.70;92.60;;;;;;4969755;28;20492;-72
2023/06/30 09:33:36;;;;;;;29.80;16.27;;;18.80;92.80;;;;;;4975307;28;20489;-74
2023/06/30 09:36:03;;;;;;;33.50;16.63;;;18.80;92.80;;;;;;4972846;28;20448;-72
2023/06/30 09:38:29;;;;;;;34.73;14.73;;;18.90;92.50;;;;;;4974179;28;20440;-71
2023/06/30 09:40:56;;;;;;;34.07;15.97;;;18.80;92.40;;;;;;4963784;28;20474;-72
2023/06/30 09:43:23;;;;;;;31.40;15.37;;;18.80;92.20;;;;;;4973598;28;20550;-72
2023/06/30 09:46:00;;;;;;;33.17;16.10;;;18.80;92.20;;;;;;4971455;28;20509;-74
2023/06/30 09:48:35;;;;;;;26.67;14.77;;;19.00;92.80;;;;;;4974445;28;20545;-72
2023/06/30 09:51:01;;;;;;;29.40;15.37;;;19.10;92.80;;;;;;4967064;28;20470;-71
2023/06/30 09:53:37;;;;;;;26.13;15.20;;;19.30;92.70;;;;;;4975077;28;20492;-73
2023/06/30 09:56:05;;;;;;;25.37;15.27;;;19.20;92.30;;;;;;4967154;28;20247;-73
2023/06/30 09:58:30;;;;;;;30.67;17.30;;;19.30;92.30;;;;;;4969291;28;20439;-73
2023/06/30 10:00:57;;;;;;;31.00;16.67;;;19.30;91.90;;;;;;4973276;28;20472;-72
2023/06/30 10:03:23;;;;;;;29.07;16.07;;;19.50;92.10;;;;;;4967390;28;20247;-74
2023/06/30 10:05:49;;;;;;;27.07;15.67;;;19.60;91.70;;;;;;4973062;28;20581;-73
2023/06/30 10:08:15;;;;;;;30.70;16.47;;;19.60;91.30;;;;;;4974398;28;21010;-73
2023/06/30 10:10:42;;;;;;;25.53;15.00;;;19.70;91.30;;;;;;4972540;28;20359;-72
2023/06/30 10:13:08;;;;;;;25.50;14.97;;;19.60;90.50;;;;;;4973668;28;20435;-72
2023/06/30 10:15:36;;;;;;;26.13;15.30;;;19.60;90.10;;;;;;4973865;28;20944;-72
2023/06/30 10:18:02;;;;;;;27.07;14.40;;;19.70;90.60;;;;;;4974659;28;20541;-73
2023/06/30 10:20:29;;;;;;;27.20;14.30;;;19.90;90.50;;;;;;4970467;28;20462;-74
2023/06/30 10:22:56;;;;;;;20.80;13.63;;;19.90;89.50;;;;;;4972111;28;20473;-74
2023/06/30 10:25:25;;;;;;;27.23;13.97;;;19.90;89.30;;;;;;4975335;28;20886;-72
2023/06/30 10:27:51;;;;;;;20.80;13.20;;;20.10;89.30;;;;;;4972890;28;20495;-74
2023/06/30 10:30:17;;;;;;;28.47;14.17;;;20.00;88.30;;;;;;4973507;28;20463;-73
2023/06/30 10:32:43;;;;;;;25.07;14.50;;;20.00;89.00;;;;;;4983727;28;20446;-73
2023/06/30 10:35:10;;;;;;;27.30;14.83;;;19.90;89.20;;;;;;4981706;28;20205;-73
2023/06/30 10:37:36;;;;;;;27.03;15.23;;;19.80;89.50;;;;;;4976898;28;20435;-73
2023/06/30 10:40:07;;;;;;;29.50;15.77;;;19.90;89.50;;;;;;4977312;28;21012;-74
2023/06/30 10:42:41;;;;;;;25.30;14.37;;;20.00;89.50;;;;;;4983305;28;20487;-72
2023/06/30 10:45:07;;;;;;;28.13;13.73;;;20.20;89.60;;;;;;4982762;28;20493;-73
2023/06/30 10:47:38;;;;;;;29.13;14.90;;;20.20;88.00;;;;;;4984307;28;20471;-73
2023/06/30 10:50:14;;;;;;;23.33;13.30;;;20.10;87.80;;;;;;4975335;28;20519;-72
2023/06/30 10:52:54;;;;;;;29.07;16.07;;;20.20;88.40;;;;;;4987160;28;20466;-74
2023/06/30 10:55:26;;;;;;;26.80;15.47;;;20.10;87.80;;;;;;4967099;28;20503;-73
2023/06/30 10:57:53;;;;;;;34.10;17.80;;;20.30;88.30;;;;;;4983839;28;20458;-72
2023/06/30 11:00:21;;;;;;;32.00;18.03;;;20.40;88.10;;;;;;4972263;28;20463;-72
2023/06/30 11:02:48;;;;;;;26.43;16.30;;;20.50;88.00;;;;;;4983848;28;20534;-73
2023/06/30 11:05:31;;;;;;;29.87;15.90;;;20.60;87.80;;;;;;4984473;28;20499;-74
2023/06/30 11:08:07;;;;;;;28.90;15.90;;;20.70;86.90;;;;;;4980149;28;20532;-73
2023/06/30 11:10:34;;;;;;;37.70;19.37;;;20.70;86.60;;;;;;4983778;28;20472;-74
2023/06/30 11:13:11;;;;;;;31.27;17.23;;;20.60;86.90;;;;;;4980475;28;20432;-74
2023/06/30 11:15:42;;;;;;;38.67;20.43;;;20.50;87.30;;;;;;4973060;28;20515;-73
2023/06/30 11:18:22;;;;;;;36.20;20.07;;;20.50;87.30;;;;;;4974736;28;20445;-73
2023/06/30 11:21:03;;;;;;;35.27;18.73;;;20.30;88.00;;;;;;4972238;28;20506;-73
2023/06/30 11:23:38;;;;;;;40.57;21.10;;;20.50;87.40;;;;;;4970238;28;20470;-72
2023/06/30 11:26:17;;;;;;;41.63;20.87;;;20.60;87.10;;;;;;4973473;28;20908;-73
2023/06/30 11:28:47;;;;;;;38.77;22.33;;;20.70;87.00;;;;;;4973048;28;20455;-72
2023/06/30 11:31:13;;;;;;;34.97;20.17;;;20.70;86.30;;;;;;4974220;28;20455;-72
2023/06/30 11:33:40;;;;;;;39.03;20.73;;;20.60;86.00;;;;;;4971311;28;20434;-73
2023/06/30 11:36:12;;;;;;;37.63;21.00;;;20.70;86.50;;;;;;4976771;28;20441;-72
2023/06/30 11:38:45;;;;;;;42.90;19.20;;;20.80;86.50;;;;;;4970863;28;20432;-71
2023/06/30 11:41:21;;;;;;;45.63;20.93;;;20.90;85.20;;;;;;4970391;28;20595;-73
2023/06/30 11:43:55;;;;;;;43.40;22.57;;;20.90;85.20;;;;;;4971607;28;20546;-71
2023/06/30 11:46:21;;;;;;;39.40;22.43;;;20.80;85.30;;;;;;4972081;28;20960;-72
2023/06/30 11:48:48;;;;;;;45.37;21.93;;;20.70;85.00;;;;;;4973364;28;20511;-73
2023/06/30 11:51:15;;;;;;;39.23;20.73;;;20.70;85.60;;;;;;4974031;28;20835;-72
2023/06/30 11:53:47;;;;;;;37.63;21.00;;;20.90;85.30;;;;;;4973502;28;20453;-74
2023/06/30 11:56:13;;;;;;;45.53;22.20;;;21.10;84.10;;;;;;4972698;28;20427;-71
2023/06/30 11:58:46;;;;;;;43.23;20.83;;;21.00;84.10;;;;;;4972383;28;20431;-72
2023/06/30 12:01:12;;;;;;;48.80;23.27;;;20.90;84.00;;;;;;4968370;28;20215;-72
2023/06/30 12:03:38;;;;;;;42.63;21.63;;;20.80;84.60;;;;;;4971831;28;20802;-74
2023/06/30 12:06:07;;;;;;;39.83;22.47;;;20.90;84.90;;;;;;4975829;28;20332;-72
2023/06/30 12:08:37;;;;;;;38.70;21.60;;;21.10;84.00;;;;;;4973653;28;20730;-72
2023/06/30 12:11:07;;;;;;;41.53;20.93;;;20.90;83.10;;;;;;4974017;28;20482;-72
2023/06/30 12:13:32;;;;;;;38.57;20.00;;;20.80;82.10;;;;;;4973899;28;20559;-72
2023/06/30 12:16:00;;;;;;;40.17;21.50;;;21.00;83.00;;;;;;4972059;28;20471;-73
2023/06/30 12:18:36;;;;;;;47.03;25.83;;;21.00;82.70;;;;;;4969320;28;20197;-73
2023/06/30 12:21:09;;;;;;;38.63;21.70;;;21.00;81.90;;;;;;4968990;28;20507;-72
2023/06/30 12:23:45;;;;;;;35.73;19.60;;;20.90;82.50;;;;;;4970587;28;20475;-73
2023/06/30 12:26:17;;;;;;;41.50;20.30;;;20.90;82.80;;;;;;4968711;28;20431;-72
2023/06/30 12:28:43;;;;;;;40.70;21.70;;;21.20;82.10;;;;;;4966968;28;20494;-73
2023/06/30 12:31:08;;;;;;;35.90;20.30;;;21.20;81.50;;;;;;4969691;28;20542;-74
2023/06/30 12:33:35;;;;;;;46.83;23.80;;;21.10;82.70;;;;;;4969315;28;20189;-71